Time,TemperatureF,DewpointF,PressureIn,WindDirection,WindDirectionDegrees,WindSpeedMPH,WindSpeedGustMPH,Humidity,HourlyPrecipIn,Conditions,Clouds,dailyrainin,SoftwareType,DateUTC
2013-02-24 00:02:00,41.8,39.9,29.93,NNW,328,0.0,1.0,93,0.00,,,0.00,Wunderground v.1.15,2013-02-24 05:02:00,
2013-02-24 00:07:00,41.3,39.7,29.93,NNW,327,0.0,1.0,94,0.00,,,0.00,Wunderground v.1.15,2013-02-24 05:07:00,
2013-02-24 00:13:00,40.8,39.2,29.93,SW,236,0.0,1.0,94,0.00,,,0.00,Wunderground v.1.15,2013-02-24 05:13:00,
2013-02-24 00:18:00,40.5,39.2,29.93,SW,236,0.0,1.0,95,0.00,,,0.00,Wunderground v.1.15,2013-02-24 05:18:00,
2013-02-24 00:27:00,40.3,39.0,29.93,SW,236,0.0,1.0,95,0.00,,,0.00,Wunderground v.1.15,2013-02-24 05:27:00,
2013-02-24 00:32:00,40.1,39.1,29.94,SW,236,0.0,1.0,96,0.00,,,0.00,Wunderground v.1.15,2013-02-24 05:32:00,
2013-02-24 00:37:00,39.9,38.9,29.94,WSW,237,0.0,1.0,96,0.00,,,0.00,Wunderground v.1.15,2013-02-24 05:37:00,
2013-02-24 00:43:00,39.6,38.6,29.94,West,276,0.0,1.0,96,0.00,,,0.00,Wunderground v.1.15,2013-02-24 05:43:00,
2013-02-24 00:48:00,39.4,38.4,29.93,West,276,0.0,1.0,96,0.00,,,0.00,Wunderground v.1.15,2013-02-24 05:48:00,
2013-02-24 00:53:00,38.9,37.9,29.93,West,276,0.0,1.0,96,0.00,,,0.00,Wunderground v.1.15,2013-02-24 05:53:00,
2013-02-24 00:58:00,38.9,38.1,29.94,West,276,0.0,1.0,97,0.00,,,0.00,Wunderground v.1.15,2013-02-24 05:58:00,
2013-02-24 01:03:00,39.1,38.3,29.94,West,276,0.0,1.0,97,0.00,,,0.00,Wunderground v.1.15,2013-02-24 06:03:00,
2013-02-24 01:08:00,38.5,37.2,29.94,West,276,0.0,1.0,95,0.00,,,0.00,Wunderground v.1.15,2013-02-24 06:08:00,
2013-02-24 01:18:00,37.4,36.4,29.94,West,260,0.0,1.0,96,0.00,,,0.00,Wunderground v.1.15,2013-02-24 06:18:00,
2013-02-24 01:23:00,37.3,36.5,29.94,West,260,0.0,1.0,97,0.00,,,0.00,Wunderground v.1.15,2013-02-24 06:23:00,
2013-02-24 01:28:00,37.3,36.5,29.94,West,260,0.0,1.0,97,0.00,,,0.00,Wunderground v.1.15,2013-02-24 06:28:00,
2013-02-24 01:33:00,37.4,36.9,29.95,SW,214,0.0,1.0,98,0.00,,,0.00,Wunderground v.1.15,2013-02-24 06:33:00,
2013-02-24 01:38:00,37.4,36.9,29.94,SW,214,0.0,1.0,98,0.00,,,0.00,Wunderground v.1.15,2013-02-24 06:38:00,
2013-02-24 01:43:00,37.3,36.5,29.95,SW,214,0.0,1.0,97,0.00,,,0.00,Wunderground v.1.15,2013-02-24 06:43:00,
2013-02-24 01:53:00,37.9,37.4,29.95,NNE,13,0.0,1.0,98,0.00,,,0.00,Wunderground v.1.15,2013-02-24 06:53:00,
2013-02-24 01:58:00,38.1,37.6,29.96,ENE,65,1.0,2.0,98,0.00,,,0.00,Wunderground v.1.15,2013-02-24 06:58:00,
2013-02-24 02:03:00,38.9,38.4,29.95,ENE,68,2.0,3.0,98,0.00,,,0.00,Wunderground v.1.15,2013-02-24 07:03:00,
2013-02-24 02:08:00,39.4,38.9,29.95,NE,50,2.0,2.0,98,0.00,,,0.00,Wunderground v.1.15,2013-02-24 07:08:00,
2013-02-24 02:13:00,38.9,38.1,29.95,NE,50,1.0,2.0,97,0.00,,,0.00,Wunderground v.1.15,2013-02-24 07:13:00,
2013-02-24 02:23:00,37.8,37.0,29.96,NE,47,0.0,2.0,97,0.00,,,0.00,Wunderground v.1.15,2013-02-24 07:23:00,
2013-02-24 02:28:00,38.3,37.8,29.96,NE,45,1.0,2.0,98,0.00,,,0.00,Wunderground v.1.15,2013-02-24 07:28:00,
2013-02-24 02:33:00,38.9,38.4,29.96,ENE,57,1.0,2.0,98,0.00,,,0.00,Wunderground v.1.15,2013-02-24 07:33:00,
2013-02-24 02:38:00,38.7,37.9,29.96,ENE,57,1.0,1.0,97,0.00,,,0.00,Wunderground v.1.15,2013-02-24 07:38:00,
2013-02-24 02:43:00,38.0,37.0,29.96,ENE,57,0.0,1.0,96,0.00,,,0.00,Wunderground v.1.15,2013-02-24 07:43:00,
2013-02-24 02:48:00,38.0,37.2,29.96,NNE,32,0.0,2.0,97,0.00,,,0.00,Wunderground v.1.15,2013-02-24 07:48:00,
2013-02-24 02:53:00,38.6,38.1,29.96,NNE,33,1.0,2.0,98,0.00,,,0.00,Wunderground v.1.15,2013-02-24 07:53:00,
2013-02-24 03:02:00,38.5,36.9,29.96,SW,222,1.0,2.0,94,0.00,,,0.00,Wunderground v.1.15,2013-02-24 08:02:00,
2013-02-24 03:07:00,37.3,35.7,29.96,SW,215,1.0,1.0,94,0.00,,,0.00,Wunderground v.1.15,2013-02-24 08:07:00,
2013-02-24 03:12:00,36.3,34.7,29.96,SSW,212,1.0,1.0,94,0.00,,,0.00,Wunderground v.1.15,2013-02-24 08:12:00,
2013-02-24 03:17:00,36.0,35.0,29.96,SSW,212,1.0,1.0,96,0.00,,,0.00,Wunderground v.1.15,2013-02-24 08:17:00,
2013-02-24 03:22:00,35.8,34.8,29.96,WSW,239,1.0,1.0,96,0.00,,,0.00,Wunderground v.1.15,2013-02-24 08:22:00,
2013-02-24 03:32:00,35.0,34.0,29.96,WSW,242,0.0,1.0,96,0.00,,,0.00,Wunderground v.1.15,2013-02-24 08:32:00,
2013-02-24 03:37:00,34.5,33.5,29.96,WSW,241,0.0,1.0,96,0.00,,,0.00,Wunderground v.1.15,2013-02-24 08:37:00,
2013-02-24 03:42:00,34.4,33.4,29.96,WSW,241,0.0,1.0,96,0.00,,,0.00,Wunderground v.1.15,2013-02-24 08:42:00,
2013-02-24 03:47:00,34.2,33.2,29.96,WSW,242,0.0,1.0,96,0.00,,,0.00,Wunderground v.1.15,2013-02-24 08:47:00,
2013-02-24 03:52:00,34.0,33.2,29.96,WSW,242,0.0,1.0,97,0.00,,,0.00,Wunderground v.1.15,2013-02-24 08:52:00,
2013-02-24 03:58:00,34.3,33.5,29.96,WSW,241,0.0,1.0,97,0.00,,,0.00,Wunderground v.1.15,2013-02-24 08:58:00,
2013-02-24 04:03:00,34.3,33.8,29.96,WSW,242,0.0,1.0,98,0.00,,,0.00,Wunderground v.1.15,2013-02-24 09:03:00,
2013-02-24 04:12:00,34.2,33.4,29.96,WSW,242,0.0,1.0,97,0.00,,,0.00,Wunderground v.1.15,2013-02-24 09:12:00,
2013-02-24 04:17:00,34.0,33.2,29.97,WSW,242,0.0,1.0,97,0.00,,,0.00,Wunderground v.1.15,2013-02-24 09:17:00,
2013-02-24 04:22:00,34.1,33.6,29.97,WSW,242,0.0,1.0,98,0.00,,,0.00,Wunderground v.1.15,2013-02-24 09:22:00,
2013-02-24 04:27:00,34.0,33.5,29.97,WSW,241,0.0,1.0,98,0.00,,,0.00,Wunderground v.1.15,2013-02-24 09:27:00,
2013-02-24 04:33:00,33.9,33.4,29.97,WSW,241,0.0,1.0,98,0.00,,,0.00,Wunderground v.1.15,2013-02-24 09:33:00,
2013-02-24 04:38:00,33.9,33.4,29.97,WSW,241,0.0,1.0,98,0.00,,,0.00,Wunderground v.1.15,2013-02-24 09:38:00,
2013-02-24 04:43:00,33.7,33.2,29.97,WSW,242,0.0,1.0,98,0.00,,,0.00,Wunderground v.1.15,2013-02-24 09:43:00,
2013-02-24 04:48:00,33.5,32.7,29.97,WSW,242,0.0,1.0,97,0.00,,,0.00,Wunderground v.1.15,2013-02-24 09:48:00,
2013-02-24 04:53:00,33.4,32.9,29.97,WSW,241,0.0,1.0,98,0.00,,,0.00,Wunderground v.1.15,2013-02-24 09:53:00,
2013-02-24 04:58:00,33.6,33.1,29.98,WSW,241,0.0,1.0,98,0.00,,,0.00,Wunderground v.1.15,2013-02-24 09:58:00,
2013-02-24 05:08:00,33.8,33.3,29.98,North,358,1.0,1.0,98,0.00,,,0.00,Wunderground v.1.15,2013-02-24 10:08:00,
2013-02-24 05:13:00,33.5,33.0,29.98,North,358,0.0,1.0,98,0.00,,,0.00,Wunderground v.1.15,2013-02-24 10:13:00,
2013-02-24 05:18:00,32.9,32.1,29.99,North,359,0.0,1.0,97,0.00,,,0.00,Wunderground v.1.15,2013-02-24 10:18:00,
2013-02-24 05:23:00,32.4,31.6,29.99,North,358,0.0,1.0,97,0.00,,,0.00,Wunderground v.1.15,2013-02-24 10:23:00,
2013-02-24 05:28:00,32.1,31.3,29.99,North,358,0.0,1.0,97,0.00,,,0.00,Wunderground v.1.15,2013-02-24 10:28:00,
2013-02-24 05:38:00,32.4,31.9,29.99,North,359,0.0,1.0,98,0.00,,,0.00,Wunderground v.1.15,2013-02-24 10:38:00,
2013-02-24 05:43:00,32.2,31.7,30.00,North,359,0.0,1.0,98,0.00,,,0.00,Wunderground v.1.15,2013-02-24 10:43:00,
2013-02-24 05:48:00,31.9,31.4,30.00,North,359,0.0,1.0,98,0.00,,,0.00,Wunderground v.1.15,2013-02-24 10:48:00,
2013-02-24 05:53:00,31.5,31.0,30.01,North,358,0.0,1.0,98,0.00,,,0.00,Wunderground v.1.15,2013-02-24 10:53:00,
2013-02-24 05:58:00,31.3,30.8,30.01,North,359,0.0,0.0,98,0.00,,,0.00,Wunderground v.1.15,2013-02-24 10:58:00,
2013-02-24 06:07:00,30.8,30.3,30.01,North,358,0.0,0.0,98,0.00,,,0.00,Wunderground v.1.15,2013-02-24 11:07:00,
2013-02-24 06:12:00,30.9,30.4,30.02,North,359,0.0,0.0,98,0.00,,,0.00,Wunderground v.1.15,2013-02-24 11:12:00,
2013-02-24 06:17:00,31.4,30.9,30.02,North,358,0.0,0.0,98,0.00,,,0.00,Wunderground v.1.15,2013-02-24 11:17:00,
2013-02-24 06:22:00,31.5,31.0,30.02,North,358,0.0,0.0,98,0.00,,,0.00,Wunderground v.1.15,2013-02-24 11:22:00,
2013-02-24 06:28:00,31.3,30.8,30.02,West,262,0.0,1.0,98,0.00,,,0.00,Wunderground v.1.15,2013-02-24 11:28:00,
2013-02-24 06:33:00,31.0,30.5,30.02,West,261,1.0,1.0,98,0.00,,,0.00,Wunderground v.1.15,2013-02-24 11:33:00,
2013-02-24 06:42:00,30.8,30.3,30.02,West,261,0.0,0.0,98,0.00,,,0.00,Wunderground v.1.15,2013-02-24 11:42:00,
2013-02-24 06:47:00,30.5,30.0,30.02,West,262,0.0,1.0,98,0.00,,,0.00,Wunderground v.1.15,2013-02-24 11:47:00,
2013-02-24 06:52:00,30.2,29.7,30.02,West,262,0.0,1.0,98,0.00,,,0.00,Wunderground v.1.15,2013-02-24 11:52:00,
2013-02-24 06:57:00,30.1,29.6,30.03,West,261,0.0,1.0,98,0.00,,,0.00,Wunderground v.1.15,2013-02-24 11:57:00,
2013-02-24 07:02:00,30.0,29.5,30.03,West,262,0.0,1.0,98,0.00,,,0.00,Wunderground v.1.15,2013-02-24 12:02:00,
2013-02-24 07:07:00,29.7,29.2,30.03,West,262,0.0,1.0,98,0.00,,,0.00,Wunderground v.1.15,2013-02-24 12:07:00,
2013-02-24 07:17:00,29.4,28.9,30.03,West,261,0.0,1.0,98,0.00,,,0.00,Wunderground v.1.15,2013-02-24 12:17:00,
2013-02-24 07:22:00,29.5,29.0,30.03,West,262,0.0,1.0,98,0.00,,,0.00,Wunderground v.1.15,2013-02-24 12:22:00,
2013-02-24 07:27:00,30.4,30.2,30.04,North,349,0.0,1.0,99,0.00,,,0.00,Wunderground v.1.15,2013-02-24 12:27:00,
2013-02-24 07:32:00,30.9,30.7,30.04,North,349,1.0,1.0,99,0.00,,,0.00,Wunderground v.1.15,2013-02-24 12:32:00,
2013-02-24 07:38:00,30.9,30.7,30.04,North,349,0.0,1.0,99,0.00,,,0.00,Wunderground v.1.15,2013-02-24 12:38:00,
2013-02-24 07:47:00,31.4,31.2,30.05,North,349,0.0,1.0,99,0.00,,,0.00,Wunderground v.1.15,2013-02-24 12:47:00,
2013-02-24 07:52:00,32.1,31.9,30.05,North,349,0.0,1.0,99,0.00,,,0.00,Wunderground v.1.15,2013-02-24 12:52:00,
2013-02-24 07:57:00,31.7,31.5,30.05,West,267,0.0,1.0,99,0.00,,,0.00,Wunderground v.1.15,2013-02-24 12:57:00,
2013-02-24 08:02:00,31.2,30.7,30.05,SW,228,0.0,1.0,98,0.00,,,0.00,Wunderground v.1.15,2013-02-24 13:02:00,
2013-02-24 08:07:00,31.0,30.5,30.05,SW,221,1.0,2.0,98,0.00,,,0.00,Wunderground v.1.15,2013-02-24 13:07:00,
2013-02-24 08:12:00,31.2,30.7,30.06,SW,215,2.0,2.0,98,0.00,,,0.00,Wunderground v.1.15,2013-02-24 13:12:00,
2013-02-24 08:22:00,31.8,31.6,30.06,SW,217,0.0,1.0,99,0.00,,,0.00,Wunderground v.1.15,2013-02-24 13:22:00,
2013-02-24 08:27:00,32.7,32.5,30.06,NE,51,0.0,1.0,99,0.00,,,0.00,Wunderground v.1.15,2013-02-24 13:27:00,
2013-02-24 08:32:00,33.6,33.3,30.06,ENE,57,1.0,3.0,99,0.00,,,0.00,Wunderground v.1.15,2013-02-24 13:32:00,
2013-02-24 08:37:00,34.4,34.1,30.06,ENE,57,2.0,2.0,99,0.00,,,0.00,Wunderground v.1.15,2013-02-24 13:37:00,
2013-02-24 08:42:00,35.1,34.8,30.06,ENE,61,2.0,2.0,99,0.00,,,0.00,Wunderground v.1.15,2013-02-24 13:42:00,
2013-02-24 08:52:00,36.4,35.6,30.07,NE,40,4.0,6.0,97,0.00,,,0.00,Wunderground v.1.15,2013-02-24 13:52:00,
2013-02-24 08:57:00,37.3,35.5,30.07,NE,53,5.0,5.0,93,0.00,,,0.00,Wunderground v.1.15,2013-02-24 13:57:00,
2013-02-24 09:02:00,38.1,34.9,30.07,NE,46,4.0,6.0,88,0.00,,,0.00,Wunderground v.1.15,2013-02-24 14:02:00,
2013-02-24 09:07:00,38.9,33.9,30.07,NE,37,5.0,7.0,82,0.00,,,0.00,Wunderground v.1.15,2013-02-24 14:07:00,
2013-02-24 09:12:00,39.4,33.4,30.07,NE,49,6.0,7.0,79,0.00,,,0.00,Wunderground v.1.15,2013-02-24 14:12:00,
2013-02-24 09:17:00,39.9,32.9,30.07,NE,45,6.0,6.0,76,0.00,,,0.00,Wunderground v.1.15,2013-02-24 14:17:00,
2013-02-24 09:23:00,40.5,32.9,30.07,ENE,74,5.0,6.0,74,0.00,,,0.00,Wunderground v.1.15,2013-02-24 14:23:00,
2013-02-24 09:32:00,41.3,33.3,30.06,ENE,60,5.0,7.0,73,0.00,,,0.00,Wunderground v.1.15,2013-02-24 14:32:00,
2013-02-24 09:37:00,41.7,33.0,30.07,NNE,25,5.0,7.0,71,0.00,,,0.00,Wunderground v.1.15,2013-02-24 14:37:00,
2013-02-24 09:42:00,42.2,32.4,30.06,ENE,59,5.0,7.0,68,0.00,,,0.00,Wunderground v.1.15,2013-02-24 14:42:00,
2013-02-24 09:47:00,42.5,31.9,30.07,NE,49,5.0,5.0,66,0.00,,,0.00,Wunderground v.1.15,2013-02-24 14:47:00,
2013-02-24 09:53:00,42.6,31.3,30.07,NE,49,6.0,10.0,64,0.00,,,0.00,Wunderground v.1.15,2013-02-24 14:53:00,
2013-02-24 09:58:00,42.7,31.4,30.07,NE,51,8.0,9.0,64,0.00,,,0.00,Wunderground v.1.15,2013-02-24 14:58:00,
2013-02-24 10:03:00,42.9,31.2,30.07,NE,44,8.0,9.0,63,0.00,,,0.00,Wunderground v.1.15,2013-02-24 15:03:00,
2013-02-24 10:08:00,43.2,31.8,30.08,NE,53,6.0,6.0,64,0.00,,,0.00,Wunderground v.1.15,2013-02-24 15:08:00,
2013-02-24 10:13:00,43.4,31.6,30.08,NE,45,5.0,6.0,63,0.00,,,0.00,Wunderground v.1.15,2013-02-24 15:13:00,
2013-02-24 10:18:00,43.7,32.3,30.08,NE,40,5.0,5.0,64,0.00,,,0.00,Wunderground v.1.15,2013-02-24 15:18:00,
2013-02-24 10:28:00,44.1,31.9,30.08,NE,51,6.0,6.0,62,0.00,,,0.00,Wunderground v.1.15,2013-02-24 15:28:00,
2013-02-24 10:33:00,44.4,32.2,30.08,NE,37,5.0,6.0,62,0.00,,,0.00,Wunderground v.1.15,2013-02-24 15:33:00,
2013-02-24 10:38:00,44.6,32.8,30.08,ENE,63,5.0,5.0,63,0.00,,,0.00,Wunderground v.1.15,2013-02-24 15:38:00,
2013-02-24 10:43:00,44.7,32.1,30.07,NE,34,5.0,5.0,61,0.00,,,0.00,Wunderground v.1.15,2013-02-24 15:43:00,
2013-02-24 10:48:00,45.2,33.3,30.08,NE,54,4.0,4.0,63,0.00,,,0.00,Wunderground v.1.15,2013-02-24 15:48:00,
2013-02-24 10:53:00,45.6,33.3,30.08,East,81,3.0,5.0,62,0.00,,,0.00,Wunderground v.1.15,2013-02-24 15:53:00,
2013-02-24 11:03:00,46.6,33.0,30.08,NE,34,4.0,4.0,59,0.00,,,0.00,Wunderground v.1.15,2013-02-24 16:03:00,
2013-02-24 11:08:00,46.8,32.4,30.08,NE,53,4.0,6.0,57,0.00,,,0.00,Wunderground v.1.15,2013-02-24 16:08:00,
2013-02-24 11:13:00,47.1,33.1,30.08,NE,56,4.0,6.0,58,0.00,,,0.00,Wunderground v.1.15,2013-02-24 16:13:00,
2013-02-24 11:18:00,47.4,33.4,30.08,NE,44,3.0,3.0,58,0.00,,,0.00,Wunderground v.1.15,2013-02-24 16:18:00,
2013-02-24 11:23:00,47.8,33.7,30.08,ENE,59,2.0,3.0,58,0.00,,,0.00,Wunderground v.1.15,2013-02-24 16:23:00,
2013-02-24 11:33:00,48.5,32.6,30.08,NE,49,3.0,5.0,54,0.00,,,0.00,Wunderground v.1.15,2013-02-24 16:33:00,
2013-02-24 11:38:00,48.3,33.3,30.08,ENE,62,4.0,4.0,56,0.00,,,0.00,Wunderground v.1.15,2013-02-24 16:38:00,
2013-02-24 11:43:00,48.4,32.5,30.08,NE,49,4.0,9.0,54,0.00,,,0.00,Wunderground v.1.15,2013-02-24 16:43:00,
2013-02-24 11:48:00,48.4,32.0,30.08,NNE,29,5.0,6.0,53,0.00,,,0.00,Wunderground v.1.15,2013-02-24 16:48:00,
2013-02-24 11:53:00,48.5,33.5,30.08,ENE,77,7.0,7.0,56,0.00,,,0.00,Wunderground v.1.15,2013-02-24 16:53:00,
2013-02-24 11:58:00,48.9,33.4,30.07,NE,54,6.0,6.0,55,0.00,,,0.00,Wunderground v.1.15,2013-02-24 16:58:00,
2013-02-24 12:07:00,49.5,33.1,30.07,NE,53,6.0,9.0,53,0.00,,,0.00,Wunderground v.1.15,2013-02-24 17:07:00,
2013-02-24 12:12:00,49.6,33.2,30.07,ENE,65,6.0,9.0,53,0.00,,,0.00,Wunderground v.1.15,2013-02-24 17:12:00,
2013-02-24 12:17:00,49.5,32.6,30.07,NE,45,6.0,6.0,52,0.00,,,0.00,Wunderground v.1.15,2013-02-24 17:17:00,
2013-02-24 12:22:00,50.0,33.5,30.07,NE,50,5.0,8.0,53,0.00,,,0.00,Wunderground v.1.15,2013-02-24 17:22:00,
2013-02-24 12:27:00,50.1,32.7,30.07,ENE,62,5.0,5.0,51,0.00,,,0.00,Wunderground v.1.15,2013-02-24 17:27:00,
2013-02-24 12:37:00,50.6,33.6,30.06,NNE,26,5.0,5.0,52,0.00,,,0.00,Wunderground v.1.15,2013-02-24 17:37:00,
2013-02-24 12:42:00,51.4,34.8,30.06,NE,44,5.0,6.0,53,0.00,,,0.00,Wunderground v.1.15,2013-02-24 17:42:00,
2013-02-24 12:47:00,51.4,33.9,30.06,ENE,70,5.0,6.0,51,0.00,,,0.00,Wunderground v.1.15,2013-02-24 17:47:00,
2013-02-24 12:52:00,51.6,33.0,30.06,ENE,73,4.0,6.0,49,0.00,,,0.00,Wunderground v.1.15,2013-02-24 17:52:00,
2013-02-24 12:57:00,51.7,33.1,30.06,ENE,70,4.0,4.0,49,0.00,,,0.00,Wunderground v.1.15,2013-02-24 17:57:00,
2013-02-24 13:02:00,52.2,33.1,30.06,ENE,72,4.0,6.0,48,0.00,,,0.00,Wunderground v.1.15,2013-02-24 18:02:00,
2013-02-24 13:08:00,52.3,33.2,30.06,NNE,23,3.0,3.0,48,0.00,,,0.00,Wunderground v.1.15,2013-02-24 18:08:00,
2013-02-24 13:13:00,52.8,34.2,30.06,East,80,2.0,5.0,49,0.00,,,0.00,Wunderground v.1.15,2013-02-24 18:13:00,
2013-02-24 13:22:00,53.6,33.3,30.05,East,80,3.0,8.0,46,0.00,,,0.00,Wunderground v.1.15,2013-02-24 18:22:00,
2013-02-24 13:27:00,53.4,33.1,30.05,ENE,65,3.0,4.0,46,0.00,,,0.00,Wunderground v.1.15,2013-02-24 18:27:00,
2013-02-24 13:32:00,53.7,32.8,30.04,SSE,160,3.0,4.0,45,0.00,,,0.00,Wunderground v.1.15,2013-02-24 18:32:00,
2013-02-24 13:38:00,54.1,32.6,30.04,NE,53,3.0,3.0,44,0.00,,,0.00,Wunderground v.1.15,2013-02-24 18:38:00,
2013-02-24 13:43:00,54.1,32.6,30.04,NE,40,3.0,3.0,44,0.00,,,0.00,Wunderground v.1.15,2013-02-24 18:43:00,
2013-02-24 13:48:00,54.3,33.9,30.04,ENE,75,2.0,2.0,46,0.00,,,0.00,Wunderground v.1.15,2013-02-24 18:48:00,
2013-02-24 13:53:00,54.5,31.9,30.04,ENE,65,4.0,4.0,42,0.00,,,0.00,Wunderground v.1.15,2013-02-24 18:53:00,
2013-02-24 13:58:00,54.4,32.3,30.03,NE,44,5.0,5.0,43,0.00,,,0.00,Wunderground v.1.15,2013-02-24 18:58:00,
2013-02-24 14:03:00,54.6,32.5,30.03,NNE,26,4.0,5.0,43,0.00,,,0.00,Wunderground v.1.15,2013-02-24 19:03:00,
2013-02-24 14:13:00,54.8,32.7,30.03,NE,54,4.0,5.0,43,0.00,,,0.00,Wunderground v.1.15,2013-02-24 19:13:00,
2013-02-24 14:18:00,55.3,31.4,30.03,ENE,72,4.0,4.0,40,0.00,,,0.00,Wunderground v.1.15,2013-02-24 19:18:00,
2013-02-24 14:23:00,55.3,31.4,30.03,ENE,62,5.0,5.0,40,0.00,,,0.00,Wunderground v.1.15,2013-02-24 19:23:00,
2013-02-24 14:28:00,55.2,31.9,30.03,ENE,57,5.0,7.0,41,0.00,,,0.00,Wunderground v.1.15,2013-02-24 19:28:00,
2013-02-24 14:33:00,55.2,32.5,30.03,NE,45,4.0,7.0,42,0.00,,,0.00,Wunderground v.1.15,2013-02-24 19:33:00,
2013-02-24 14:38:00,55.9,31.9,30.03,ENE,70,4.0,4.0,40,0.00,,,0.00,Wunderground v.1.15,2013-02-24 19:38:00,
2013-02-24 14:48:00,56.1,28.8,30.02,NE,49,4.0,4.0,35,0.00,,,0.00,Wunderground v.1.15,2013-02-24 19:48:00,
2013-02-24 14:53:00,56.0,29.4,30.03,NE,40,5.0,5.0,36,0.00,,,0.00,Wunderground v.1.15,2013-02-24 19:53:00,
2013-02-24 14:58:00,56.1,30.8,30.03,North,349,5.0,5.0,38,0.00,,,0.00,Wunderground v.1.15,2013-02-24 19:58:00,
2013-02-24 15:03:00,56.3,31.0,30.02,NE,49,3.0,8.0,38,0.00,,,0.00,Wunderground v.1.15,2013-02-24 20:03:00,
2013-02-24 15:08:00,56.3,29.0,30.02,NE,47,4.0,7.0,35,0.00,,,0.00,Wunderground v.1.15,2013-02-24 20:08:00,
2013-02-24 15:17:00,56.7,30.7,30.02,NE,42,5.0,6.0,37,0.00,,,0.00,Wunderground v.1.15,2013-02-24 20:17:00,
2013-02-24 15:22:00,56.7,29.3,30.02,NNE,23,5.0,6.0,35,0.00,,,0.00,Wunderground v.1.15,2013-02-24 20:22:00,
2013-02-24 15:27:00,56.6,28.5,30.01,North,353,6.0,7.0,34,0.00,,,0.00,Wunderground v.1.15,2013-02-24 20:27:00,
2013-02-24 15:32:00,56.7,30.7,30.01,NE,56,5.0,7.0,37,0.00,,,0.00,Wunderground v.1.15,2013-02-24 20:32:00,
2013-02-24 15:38:00,57.2,31.1,30.01,East,79,4.0,4.0,37,0.00,,,0.00,Wunderground v.1.15,2013-02-24 20:38:00,
2013-02-24 15:43:00,57.4,29.2,30.01,East,94,4.0,4.0,34,0.00,,,0.00,Wunderground v.1.15,2013-02-24 20:43:00,
2013-02-24 15:52:00,57.3,29.1,30.01,NNE,27,4.0,5.0,34,0.00,,,0.00,Wunderground v.1.15,2013-02-24 20:52:00,
2013-02-24 15:57:00,57.5,29.3,30.01,NE,44,4.0,4.0,34,0.00,,,0.00,Wunderground v.1.15,2013-02-24 20:57:00,
2013-02-24 16:02:00,57.7,30.9,30.01,ENE,63,4.0,5.0,36,0.00,,,0.00,Wunderground v.1.15,2013-02-24 21:02:00,
2013-02-24 16:07:00,57.8,29.6,30.01,ESE,102,4.0,4.0,34,0.00,,,0.00,Wunderground v.1.15,2013-02-24 21:07:00,
2013-02-24 16:12:00,58.0,29.0,30.01,East,79,3.0,4.0,33,0.00,,,0.00,Wunderground v.1.15,2013-02-24 21:12:00,
2013-02-24 16:22:00,57.4,27.7,30.00,NNE,27,5.0,6.0,32,0.00,,,0.00,Wunderground v.1.15,2013-02-24 21:22:00,
2013-02-24 16:27:00,57.4,29.2,30.00,ENE,63,5.0,5.0,34,0.00,,,0.00,Wunderground v.1.15,2013-02-24 21:27:00,
2013-02-24 16:32:00,57.6,27.9,30.00,East,81,5.0,5.0,32,0.00,,,0.00,Wunderground v.1.15,2013-02-24 21:32:00,
2013-02-24 16:37:00,57.6,29.4,30.00,ENE,63,4.0,6.0,34,0.00,,,0.00,Wunderground v.1.15,2013-02-24 21:37:00,
2013-02-24 16:42:00,57.7,27.2,30.00,ENE,64,4.0,6.0,31,0.00,,,0.00,Wunderground v.1.15,2013-02-24 21:42:00,
2013-02-24 16:47:00,57.6,27.9,30.00,ENE,65,5.0,5.0,32,0.00,,,0.00,Wunderground v.1.15,2013-02-24 21:47:00,
2013-02-24 16:53:00,57.9,28.9,30.01,ENE,72,3.0,5.0,33,0.00,,,0.00,Wunderground v.1.15,2013-02-24 21:53:00,
2013-02-24 16:58:00,58.0,27.5,30.01,NE,56,3.0,5.0,31,0.00,,,0.00,Wunderground v.1.15,2013-02-24 21:58:00,
2013-02-24 17:07:00,57.7,28.0,30.01,NE,46,3.0,7.0,32,0.00,,,0.00,Wunderground v.1.15,2013-02-24 22:07:00,
2013-02-24 17:12:00,57.7,29.5,30.01,NE,43,3.0,7.0,34,0.00,,,0.00,Wunderground v.1.15,2013-02-24 22:12:00,
2013-02-24 17:17:00,57.8,28.9,30.01,NNE,13,4.0,5.0,33,0.00,,,0.00,Wunderground v.1.15,2013-02-24 22:17:00,
2013-02-24 17:23:00,57.6,27.9,30.01,NNE,22,4.0,5.0,32,0.00,,,0.00,Wunderground v.1.15,2013-02-24 22:23:00,
2013-02-24 17:28:00,57.7,29.5,30.01,North,6,4.0,4.0,34,0.00,,,0.00,Wunderground v.1.15,2013-02-24 22:28:00,
2013-02-24 17:33:00,57.9,28.2,30.01,NE,34,2.0,4.0,32,0.00,,,0.00,Wunderground v.1.15,2013-02-24 22:33:00,
2013-02-24 17:38:00,57.9,27.4,30.01,ENE,68,2.0,2.0,31,0.00,,,0.00,Wunderground v.1.15,2013-02-24 22:38:00,
2013-02-24 17:43:00,57.8,28.1,30.01,East,80,2.0,3.0,32,0.00,,,0.00,Wunderground v.1.15,2013-02-24 22:43:00,
2013-02-24 17:48:00,58.1,29.1,30.01,SE,124,2.0,2.0,33,0.00,,,0.00,Wunderground v.1.15,2013-02-24 22:48:00,
2013-02-24 17:58:00,58.2,28.5,30.01,ENE,65,1.0,1.0,32,0.00,,,0.00,Wunderground v.1.15,2013-02-24 22:58:00,
2013-02-24 18:03:00,58.1,27.6,30.01,ENE,57,1.0,1.0,31,0.00,,,0.00,Wunderground v.1.15,2013-02-24 23:03:00,
2013-02-24 18:08:00,57.8,27.3,30.01,ENE,60,1.0,1.0,31,0.00,,,0.00,Wunderground v.1.15,2013-02-24 23:08:00,
2013-02-24 18:13:00,57.8,28.9,30.01,ESE,108,1.0,1.0,33,0.00,,,0.00,Wunderground v.1.15,2013-02-24 23:13:00,
2013-02-24 18:18:00,57.6,29.4,30.02,ESE,116,0.0,1.0,34,0.00,,,0.00,Wunderground v.1.15,2013-02-24 23:18:00,
2013-02-24 18:23:00,56.9,29.5,30.02,ESE,116,0.0,1.0,35,0.00,,,0.00,Wunderground v.1.15,2013-02-24 23:23:00,
2013-02-24 18:33:00,54.6,31.9,30.02,ESE,116,0.0,1.0,42,0.00,,,0.00,Wunderground v.1.15,2013-02-24 23:33:00,
2013-02-24 18:38:00,53.0,34.3,30.02,ESE,116,0.0,1.0,49,0.00,,,0.00,Wunderground v.1.15,2013-02-24 23:38:00,
2013-02-24 18:43:00,51.7,35.1,30.03,ESE,110,1.0,1.0,53,0.00,,,0.00,Wunderground v.1.15,2013-02-24 23:43:00,
2013-02-24 18:48:00,50.8,33.8,30.03,ESE,109,1.0,1.0,52,0.00,,,0.00,Wunderground v.1.15,2013-02-24 23:48:00,
2013-02-24 18:53:00,50.0,33.5,30.03,North,349,1.0,1.0,53,0.00,,,0.00,Wunderground v.1.15,2013-02-24 23:53:00,
2013-02-24 19:02:00,49.1,37.0,30.03,North,10,1.0,1.0,63,0.00,,,0.00,Wunderground v.1.15,2013-02-25 00:02:00,
2013-02-24 19:07:00,48.5,36.9,30.03,North,10,1.0,1.0,64,0.00,,,0.00,Wunderground v.1.15,2013-02-25 00:07:00,
2013-02-24 19:12:00,48.0,36.8,30.03,North,356,1.0,1.0,65,0.00,,,0.00,Wunderground v.1.15,2013-02-25 00:12:00,
2013-02-24 19:17:00,47.1,36.7,30.03,NNW,333,1.0,1.0,67,0.00,,,0.00,Wunderground v.1.15,2013-02-25 00:17:00,
2013-02-24 19:22:00,46.3,36.3,30.03,North,360,1.0,1.0,68,0.00,,,0.00,Wunderground v.1.15,2013-02-25 00:22:00,
2013-02-24 19:27:00,45.8,36.6,30.03,North,5,1.0,2.0,70,0.00,,,0.00,Wunderground v.1.15,2013-02-25 00:27:00,
2013-02-24 19:37:00,45.2,37.1,30.03,NNE,13,1.0,1.0,73,0.00,,,0.00,Wunderground v.1.15,2013-02-25 00:37:00,
2013-02-24 19:42:00,45.1,37.3,30.03,NNE,13,1.0,1.0,74,0.00,,,0.00,Wunderground v.1.15,2013-02-25 00:42:00,
2013-02-24 19:47:00,44.9,37.5,30.03,NNE,13,0.0,1.0,75,0.00,,,0.00,Wunderground v.1.15,2013-02-25 00:47:00,
2013-02-24 19:52:00,44.2,36.8,30.03,NNE,13,0.0,1.0,75,0.00,,,0.00,Wunderground v.1.15,2013-02-25 00:52:00,
2013-02-24 19:57:00,43.3,36.2,30.03,SW,229,0.0,1.0,76,0.00,,,0.00,Wunderground v.1.15,2013-02-25 00:57:00,
2013-02-24 20:07:00,41.6,35.6,30.03,SW,229,0.0,1.0,79,0.00,,,0.00,Wunderground v.1.15,2013-02-25 01:07:00,
2013-02-24 20:12:00,41.2,35.8,30.03,SW,229,0.0,1.0,81,0.00,,,0.00,Wunderground v.1.15,2013-02-25 01:12:00,
2013-02-24 20:17:00,41.0,36.2,30.03,SW,229,0.0,1.0,83,0.00,,,0.00,Wunderground v.1.15,2013-02-25 01:17:00,
2013-02-24 20:22:00,41.0,36.5,30.03,NW,325,0.0,1.0,84,0.00,,,0.00,Wunderground v.1.15,2013-02-25 01:22:00,
2013-02-24 20:27:00,41.0,36.5,30.03,North,350,0.0,1.0,84,0.00,,,0.00,Wunderground v.1.15,2013-02-25 01:27:00,
2013-02-24 20:32:00,41.1,36.6,30.04,North,350,1.0,1.0,84,0.00,,,0.00,Wunderground v.1.15,2013-02-25 01:32:00,
2013-02-24 20:38:00,41.0,36.2,30.04,NNW,347,1.0,1.0,83,0.00,,,0.00,Wunderground v.1.15,2013-02-25 01:38:00,
2013-02-24 20:43:00,40.4,35.3,30.04,West,277,0.0,1.0,82,0.00,,,0.00,Wunderground v.1.15,2013-02-25 01:43:00,
2013-02-24 20:48:00,39.7,35.0,30.04,West,277,0.0,1.0,83,0.00,,,0.00,Wunderground v.1.15,2013-02-25 01:48:00,
2013-02-24 20:53:00,39.4,35.3,30.04,West,277,0.0,1.0,85,0.00,,,0.00,Wunderground v.1.15,2013-02-25 01:53:00,
2013-02-24 20:58:00,39.2,35.4,30.04,West,277,0.0,1.0,86,0.00,,,0.00,Wunderground v.1.15,2013-02-25 01:58:00,
2013-02-24 21:03:00,38.8,35.0,30.03,West,277,0.0,1.0,86,0.00,,,0.00,Wunderground v.1.15,2013-02-25 02:03:00,
2013-02-24 21:13:00,38.5,35.3,30.03,West,277,0.0,1.0,88,0.00,,,0.00,Wunderground v.1.15,2013-02-25 02:13:00,
2013-02-24 21:18:00,38.5,35.3,30.04,West,277,0.0,1.0,88,0.00,,,0.00,Wunderground v.1.15,2013-02-25 02:18:00,
2013-02-24 21:23:00,38.2,35.0,30.04,West,277,0.0,1.0,88,0.00,,,0.00,Wunderground v.1.15,2013-02-25 02:23:00,
2013-02-24 21:28:00,37.9,34.7,30.04,West,277,0.0,1.0,88,0.00,,,0.00,Wunderground v.1.15,2013-02-25 02:28:00,
2013-02-24 21:33:00,37.9,34.9,30.03,NNE,23,0.0,1.0,89,0.00,,,0.00,Wunderground v.1.15,2013-02-25 02:33:00,
2013-02-24 21:43:00,39.7,35.9,30.04,SW,232,0.0,1.0,86,0.00,,,0.00,Wunderground v.1.15,2013-02-25 02:43:00,
2013-02-24 21:48:00,39.1,35.0,30.04,SW,232,0.0,1.0,85,0.00,,,0.00,Wunderground v.1.15,2013-02-25 02:48:00,
2013-02-24 21:53:00,38.3,34.8,30.04,SW,233,1.0,1.0,87,0.00,,,0.00,Wunderground v.1.15,2013-02-25 02:53:00,
2013-02-24 21:58:00,37.6,34.1,30.04,SW,232,0.0,1.0,87,0.00,,,0.00,Wunderground v.1.15,2013-02-25 02:58:00,
2013-02-24 22:03:00,37.2,34.0,30.04,SW,233,0.0,1.0,88,0.00,,,0.00,Wunderground v.1.15,2013-02-25 03:03:00,
2013-02-24 22:08:00,36.8,33.9,30.04,SW,233,0.0,1.0,89,0.00,,,0.00,Wunderground v.1.15,2013-02-25 03:08:00,
2013-02-24 22:17:00,36.7,34.0,30.04,SW,232,0.0,1.0,90,0.00,,,0.00,Wunderground v.1.15,2013-02-25 03:17:00,
2013-02-24 22:23:00,36.4,33.7,30.04,SW,233,0.0,1.0,90,0.00,,,0.00,Wunderground v.1.15,2013-02-25 03:23:00,
2013-02-24 22:27:00,36.1,33.7,30.04,SW,233,0.0,1.0,91,0.00,,,0.00,Wunderground v.1.15,2013-02-25 03:27:00,
2013-02-24 22:33:00,36.1,33.7,30.04,SW,232,0.0,1.0,91,0.00,,,0.00,Wunderground v.1.15,2013-02-25 03:33:00,
2013-02-24 22:38:00,36.1,33.5,30.04,SW,232,0.0,1.0,90,0.00,,,0.00,Wunderground v.1.15,2013-02-25 03:38:00,
2013-02-24 22:47:00,35.5,33.1,30.03,SW,232,0.0,1.0,91,0.00,,,0.00,Wunderground v.1.15,2013-02-25 03:47:00,
2013-02-24 22:52:00,35.1,32.7,30.03,SW,232,0.0,1.0,91,0.00,,,0.00,Wunderground v.1.15,2013-02-25 03:52:00,
2013-02-24 22:57:00,34.7,32.3,30.03,SW,232,0.0,1.0,91,0.00,,,0.00,Wunderground v.1.15,2013-02-25 03:57:00,
2013-02-24 23:02:00,34.3,31.9,30.03,SW,232,0.0,1.0,91,0.00,,,0.00,Wunderground v.1.15,2013-02-25 04:02:00,
2013-02-24 23:07:00,34.3,32.2,30.03,SW,232,0.0,1.0,92,0.00,,,0.00,Wunderground v.1.15,2013-02-25 04:07:00,
2013-02-24 23:12:00,34.4,32.3,30.03,SW,232,0.0,1.0,92,0.00,,,0.00,Wunderground v.1.15,2013-02-25 04:12:00,
2013-02-24 23:22:00,36.7,34.0,30.03,WSW,242,0.0,1.0,90,0.00,,,0.00,Wunderground v.1.15,2013-02-25 04:22:00,
2013-02-24 23:27:00,36.4,33.7,30.03,WSW,242,0.0,1.0,90,0.00,,,0.00,Wunderground v.1.15,2013-02-25 04:27:00,
2013-02-24 23:32:00,35.9,33.3,30.03,WSW,242,0.0,1.0,90,0.00,,,0.00,Wunderground v.1.15,2013-02-25 04:32:00,
2013-02-24 23:37:00,36.3,34.2,30.03,WSW,242,0.0,1.0,92,0.00,,,0.00,Wunderground v.1.15,2013-02-25 04:37:00,
2013-02-24 23:42:00,36.6,34.2,30.02,WSW,242,0.0,1.0,91,0.00,,,0.00,Wunderground v.1.15,2013-02-25 04:42:00,
2013-02-24 23:48:00,36.3,33.6,30.02,WSW,241,0.0,1.0,90,0.00,,,0.00,Wunderground v.1.15,2013-02-25 04:48:00,
2013-02-24 23:57:00,37.8,34.0,30.02,NNE,32,2.0,2.0,86,0.00,,,0.00,Wunderground v.1.15,2013-02-25 04:57:00,